Point Fermin — WDE4178 — position and weather

sailwx.info

Track history (hours):
 
Tides and Currents Weather Stations Pressure Air Temp Water Temp Dewpoint Dewpoint Depression Visibility Wind Speed Wind Dir Waves Ship Positions

Point Fermin

Owner: Foss Maritime Company, Seattle, WA. More information available from US FCC via Universal Licensing System and Coast Guard Vessel Documentation Center.

Last reported at 2018-Mar-15 16:06 UTC. Time now 2018-Apr-26 11:12 UTC.
Position N 37°54' W 122°22'.
Warning: this ship's position is 41 days out of date.

Length 32 m; draft 4.3 m.

Type: Towing. MMSI: 367349770.

Date/timePositionNaut miles runAvg speedWind from/ knotsBaromVisibWave heightAir tempDewpointWater temp
2018-Mar-15 16:06N 37°54' W 122°22'0 0.0
2018-Mar-15 15:59N 37°54' W 122°22'2 3.8
2018-Mar-15 15:30N 37°53' W 122°24'3 6.7
2018-Mar-15 15:00N 37°50' W 122°23'3 5.9
2018-Mar-15 14:30N 37°48' W 122°22'2 4.1
2018-Mar-15 14:00N 37°46' W 122°20'0 0.3
2018-Mar-15 13:29N 37°46' W 122°20'0 0.1
2018-Mar-15 12:59N 37°46' W 122°20'0 0.0
2018-Mar-15 12:30N 37°46' W 122°20'0 0.1
2018-Mar-15 12:00N 37°46' W 122°20'0 0.0
2018-Mar-15 11:30N 37°46' W 122°20'0 0.0
2018-Mar-15 11:00N 37°46' W 122°20'0 0.0
2018-Mar-15 10:30N 37°46' W 122°20'0 0.0
2018-Mar-15 10:00N 37°46' W 122°20'0 0.0
2018-Mar-15 09:30N 37°46' W 122°20'0 0.0
2018-Mar-15 09:00N 37°46' W 122°20'0 0.0
2018-Mar-15 08:30N 37°46' W 122°20'0 0.3
2018-Mar-15 08:00N 37°46' W 122°21'0 0.5
2018-Mar-15 07:30N 37°46' W 122°20'3 5.0
2018-Mar-15 07:00N 37°49' W 122°20'0 0.7
2018-Mar-15 06:23N 37°49' W 122°20'0 0.0
2018-Mar-15 05:59N 37°49' W 122°20'0 0.0
2018-Mar-15 05:23N 37°49' W 122°20'0 0.0
2018-Mar-15 04:47N 37°49' W 122°20'0 0.0
2018-Mar-15 04:26N 37°49' W 122°20'0 0.0
2018-Mar-15 03:59N 37°49' W 122°20'0 0.0
2018-Mar-15 03:29N 37°49' W 122°20'0 0.0
2018-Mar-15 02:59N 37°49' W 122°20'0 0.0
2018-Mar-15 02:26N 37°49' W 122°20'0 0.0
2018-Mar-15 01:50N 37°49' W 122°20'0 0.0
2018-Mar-15 01:26N 37°49' W 122°20'0 0.0
2018-Mar-15 00:56N 37°49' W 122°20'0 0.0
2018-Mar-15 00:30N 37°49' W 122°20'1 2.7
2018-Mar-15 00:00N 37°49' W 122°21'2 3.4
2018-Mar-14 23:30N 37°50' W 122°22'1 2.2
2018-Mar-14 23:01N 37°51' W 122°23'2 3.6
2018-Mar-14 22:31N 37°53' W 122°24'2 3.8
2018-Mar-14 22:00N 37°54' W 122°23'1 2.1
2018-Mar-14 21:30N 37°55' W 122°22'1 2.6
2018-Mar-14 21:01N 37°54' W 122°23'2 3.2
2018-Mar-14 20:30N 37°56' W 122°25'1 2.8
2018-Mar-14 20:00N 37°54' W 122°25'4 8.0
2018-Mar-14 19:30N 37°50' W 122°23'3 6.9
2018-Mar-14 19:00N 37°48' W 122°20'2 3.4
2018-Mar-14 18:29N 37°48' W 122°18'0 0.0
2018-Mar-14 17:59N 37°48' W 122°18'0 0.0
2018-Mar-14 17:29N 37°48' W 122°18'0 0.0
2018-Mar-14 16:59N 37°48' W 122°18'0 0.0
2018-Mar-14 16:29N 37°48' W 122°18'0 0.0
2018-Mar-14 15:59N 37°48' W 122°18'0 0.0
2018-Mar-14 15:29N 37°48' W 122°18'0 0.1
2018-Mar-14 15:01N 37°48' W 122°18'2 3.0
2018-Mar-14 14:30N 37°48' W 122°20'3 6.3
2018-Mar-14 14:00N 37°50' W 122°22'4 7.4
2018-Mar-14 13:31N 37°54' W 122°24'2 3.4
2018-Mar-14 13:01N 37°54' W 122°22'0 0.0
2018-Mar-14 12:28N 37°54' W 122°22'0 0.0
2018-Mar-14 11:58N 37°54' W 122°22'0 0.0
2018-Mar-14 11:25N 37°54' W 122°22'0 0.0
2018-Mar-14 10:58N 37°54' W 122°22'0 0.0
2018-Mar-14 10:25N 37°54' W 122°22'0 0.0
2018-Mar-14 09:55N 37°54' W 122°22'0 0.0
2018-Mar-14 09:28N 37°54' W 122°22'1 1.3
2018-Mar-14 09:00N 37°55' W 122°22'1 1.1
2018-Mar-14 08:30N 37°55' W 122°22'2 3.6
2018-Mar-14 07:59N 37°54' W 122°24'4 7.4
2018-Mar-14 07:30N 37°51' W 122°23'4 7.9
2018-Mar-14 07:00N 37°47' W 122°21'1 2.5
2018-Mar-14 06:29N 37°46' W 122°21'0 0.0
2018-Mar-14 05:59N 37°46' W 122°21'0 0.1
2018-Mar-14 05:29N 37°46' W 122°21'0 0.0
2018-Mar-14 04:59N 37°46' W 122°21'0 0.0
2018-Mar-14 04:30N 37°46' W 122°21'0 0.0
2018-Mar-14 04:00N 37°46' W 122°21'0 0.0
2018-Mar-14 03:30N 37°46' W 122°21'0 0.0
2018-Mar-14 03:00N 37°46' W 122°21'0 0.0
2018-Mar-14 02:27N 37°46' W 122°21'0 0.1
2018-Mar-14 02:00N 37°46' W 122°21'0 0.0
2018-Mar-14 01:30N 37°46' W 122°21'0 0.1
2018-Mar-14 01:00N 37°46' W 122°21'0 0.1
2018-Mar-14 00:30N 37°46' W 122°21'0 0.3
2018-Mar-14 00:00N 37°46' W 122°21'0 0.1
2018-Mar-13 23:30N 37°46' W 122°21'0 0.2
2018-Mar-13 23:01N 37°46' W 122°21'3 5.9
2018-Mar-13 22:31N 37°49' W 122°23'3 6.3
2018-Mar-13 22:01N 37°52' W 122°24'2 4.8
2018-Mar-13 21:31N 37°54' W 122°23'1 1.9
2018-Mar-13 21:01N 37°55' W 122°22'0 0.0
2018-Mar-13 20:31N 37°55' W 122°22'0 0.5
2018-Mar-13 20:00N 37°55' W 122°22'1 1.8
2018-Mar-13 19:31N 37°54' W 122°22'0 0.2
2018-Mar-13 19:01N 37°54' W 122°22'0 0.0
2018-Mar-13 18:31N 37°54' W 122°22'1 1.0
2018-Mar-13 18:00N 37°54' W 122°23'3 7.2
2018-Mar-13 17:31N 37°51' W 122°23'2 3.6
2018-Mar-13 17:00N 37°49' W 122°22'2 4.2
2018-Mar-13 16:30N 37°47' W 122°21'3 5.7
2018-Mar-13 16:01N 37°44' W 122°20'1 1.6
2018-Mar-13 15:29N 37°44' W 122°20'0 0.0
2018-Mar-13 14:59N 37°44' W 122°20'0 0.0
2018-Mar-13 14:29N 37°44' W 122°20'0 0.1
2018-Mar-13 13:59N 37°44' W 122°20'0 0.1
2018-Mar-13 13:29N 37°44' W 122°20'0 0.2
2018-Mar-13 12:59N 37°44' W 122°20'0 0.1
2018-Mar-13 12:29N 37°44' W 122°20'0 0.0
2018-Mar-13 11:59N 37°44' W 122°20'0 0.1
2018-Mar-13 11:29N 37°44' W 122°20'0 0.1
2018-Mar-13 11:01N 37°44' W 122°20'2 3.8
2018-Mar-13 10:31N 37°46' W 122°21'3 5.1
2018-Mar-13 10:01N 37°48' W 122°22'2 4.6
2018-Mar-13 09:31N 37°50' W 122°23'3 5.0
2018-Mar-13 09:01N 37°52' W 122°24'2 4.0
2018-Mar-13 08:31N 37°54' W 122°23'1 2.5
2018-Mar-13 08:00N 37°55' W 122°22'1 2.1
2018-Mar-13 07:30N 37°54' W 122°22'0 0.5
2018-Mar-13 07:00N 37°54' W 122°22'0 0.0
2018-Mar-13 06:30N 37°54' W 122°22'0 0.0
2018-Mar-13 06:01N 37°54' W 122°22'0 0.0
2018-Mar-13 05:30N 37°54' W 122°22'0 0.0
2018-Mar-13 04:59N 37°54' W 122°22'0 0.0
2018-Mar-13 04:31N 37°54' W 122°22'0 0.0
2018-Mar-13 04:00N 37°54' W 122°22'0 0.0
2018-Mar-13 03:31N 37°54' W 122°22'0 0.2
2018-Mar-13 03:01N 37°54' W 122°22'2 3.7
2018-Mar-13 02:30N 37°54' W 122°25'3 6.6
2018-Mar-13 02:00N 37°51' W 122°23'3 5.8
2018-Mar-13 01:31N 37°48' W 122°21'2 4.8
2018-Mar-13 01:01N 37°48' W 122°18'0 0.0
2018-Mar-13 00:28N 37°48' W 122°18'0 0.0
2018-Mar-12 23:58N 37°48' W 122°18'0 0.0
2018-Mar-12 23:28N 37°48' W 122°18'0 0.0
2018-Mar-12 22:58N 37°48' W 122°18'0 0.0
2018-Mar-12 22:29N 37°48' W 122°18'0 0.0
2018-Mar-12 21:58N 37°48' W 122°18'0 0.0
2018-Mar-12 21:28N 37°48' W 122°18'0 0.0
2018-Mar-12 20:58N 37°48' W 122°18'0 0.2
2018-Mar-12 20:30N 37°48' W 122°18'2 4.1
2018-Mar-12 20:00N 37°48' W 122°21'3 5.0
2018-Mar-12 19:30N 37°50' W 122°22'3 5.4
2018-Mar-12 19:00N 37°53' W 122°24'2 4.4
2018-Mar-12 18:30N 37°54' W 122°23'0 0.4
2018-Mar-12 18:00N 37°54' W 122°22'0 0.0
2018-Mar-12 17:27N 37°54' W 122°22'0 0.0
2018-Mar-12 17:00N 37°54' W 122°22'0 0.0
2018-Mar-12 16:30N 37°54' W 122°22'0 0.0
2018-Mar-12 15:57N 37°54' W 122°22'0 0.0
2018-Mar-12 15:30N 37°54' W 122°22'0 0.0
2018-Mar-12 14:57N 37°54' W 122°22'1 1.8
2018-Mar-12 14:29N 37°55' W 122°22'1 1.1
2018-Mar-12 14:01N 37°55' W 122°22'1 1.2
2018-Mar-12 13:31N 37°54' W 122°22'3 5.0
2018-Mar-12 13:01N 37°56' W 122°25'0 0.3
2018-Mar-12 12:31N 37°56' W 122°25'2 4.7
2018-Mar-12 11:59N 37°54' W 122°22'2 3.8
2018-Mar-12 11:30N 37°54' W 122°25'4 8.5
2018-Mar-12 11:00N 37°50' W 122°22'1 2.2
2018-Mar-12 10:30N 37°49' W 122°22'1 2.1
2018-Mar-12 10:00N 37°48' W 122°21'2 4.4
2018-Mar-12 09:31N 37°46' W 122°20'0 0.0
2018-Mar-12 09:00N 37°46' W 122°20'0 0.0
2018-Mar-12 08:30N 37°46' W 122°20'0 0.0
2018-Mar-12 08:00N 37°46' W 122°20'0 0.0
2018-Mar-12 07:30N 37°46' W 122°20'0 0.0
2018-Mar-12 07:00N 37°46' W 122°20'0 0.0
2018-Mar-12 06:30N 37°46' W 122°20'0 0.1
2018-Mar-12 06:00N 37°46' W 122°20'0 0.3
2018-Mar-12 05:30N 37°46' W 122°20'0 0.1
2018-Mar-12 05:00N 37°46' W 122°20'0 0.2
2018-Mar-12 04:30N 37°46' W 122°20'3 6.4
2018-Mar-12 04:00N 37°49' W 122°21'3 6.3
2018-Mar-12 03:30N 37°52' W 122°24'2 4.8
2018-Mar-12 03:00N 37°54' W 122°25'2 4.8
2018-Mar-12 02:30N 37°55' W 122°22'1 1.1
2018-Mar-12 02:00N 37°54' W 122°22'0 0.4
2018-Mar-12 01:30N 37°54' W 122°22'0 0.0
2018-Mar-12 00:57N 37°54' W 122°22'0 0.0
2018-Mar-12 00:30N 37°54' W 122°22'0 0.0
2018-Mar-12 00:00N 37°54' W 122°22'0 0.0
2018-Mar-11 23:27N 37°54' W 122°22'0 0.0
2018-Mar-11 23:00N 37°54' W 122°22'0 0.0
2018-Mar-11 22:30N 37°54' W 122°22'0 0.0
2018-Mar-11 22:00N 37°54' W 122°22'0 0.0
2018-Mar-11 21:30N 37°54' W 122°22'1 1.6
2018-Mar-11 21:01N 37°55' W 122°22'1 1.5
2018-Mar-11 20:28N 37°54' W 122°22'0 0.0
2018-Mar-11 19:58N 37°54' W 122°22'0 0.0
2018-Mar-11 19:31N 37°54' W 122°22'0 0.0
2018-Mar-11 19:01N 37°54' W 122°22'0 0.0
2018-Mar-11 18:30N 37°54' W 122°22'0 0.0
2018-Mar-11 18:01N 37°54' W 122°22'0 0.0
2018-Mar-11 17:30N 37°54' W 122°22'0 0.0
2018-Mar-11 17:01N 37°54' W 122°22'0 0.0
2018-Mar-11 16:31N 37°54' W 122°22'0 0.0
2018-Mar-11 16:01N 37°54' W 122°22'0 0.0
2018-Mar-11 15:30N 37°54' W 122°22'0 0.0
2018-Mar-11 15:00N 37°54' W 122°22'0 0.0
2018-Mar-11 14:31N 37°54' W 122°22'0 0.0
2018-Mar-11 14:00N 37°54' W 122°22'0 0.0
2018-Mar-11 13:31N 37°54' W 122°22'0 0.0
2018-Mar-11 13:01N 37°54' W 122°22'0 0.0
2018-Mar-11 12:30N 37°54' W 122°22'0 0.0
2018-Mar-11 12:00N 37°54' W 122°22'0 0.0
2018-Mar-11 11:31N 37°54' W 122°22'0 0.0
2018-Mar-11 11:01N 37°54' W 122°22'0 0.0
2018-Mar-11 10:30N 37°54' W 122°22'0 0.0
2018-Mar-11 10:00N 37°54' W 122°22'0 0.0
2018-Mar-11 09:31N 37°54' W 122°22'0 0.0
2018-Mar-11 09:01N 37°54' W 122°22'0 0.0
2018-Mar-11 08:30N 37°54' W 122°22'0 0.0
2018-Mar-11 08:01N 37°54' W 122°22'0 0.0
2018-Mar-11 07:30N 37°54' W 122°22'0 0.0
2018-Mar-11 07:01N 37°54' W 122°22'0 0.0
2018-Mar-11 06:31N 37°54' W 122°22'0 0.0
2018-Mar-11 06:00N 37°54' W 122°22'1 2.0
2018-Mar-11 05:31N 37°54' W 122°24'1 2.7
2018-Mar-11 05:01N 37°55' W 122°25'2 3.8
2018-Mar-11 04:31N 37°54' W 122°23'1 2.1
2018-Mar-11 04:00N 37°55' W 122°22'1 1.8
2018-Mar-11 03:30N 37°54' W 122°22'0 0.0
2018-Mar-11 03:00N 37°54' W 122°22'0 0.0
2018-Mar-11 02:31N 37°54' W 122°22'0 0.0
2018-Mar-11 02:01N 37°54' W 122°22'0 0.0
2018-Mar-11 01:31N 37°54' W 122°22'0 0.0
2018-Mar-11 01:01N 37°54' W 122°22'0 0.0
2018-Mar-11 00:30N 37°54' W 122°22'0 0.0
2018-Mar-11 00:00N 37°54' W 122°22'0 0.0
2018-Mar-10 23:30N 37°54' W 122°22'0 0.0
2018-Mar-10 23:01N 37°54' W 122°22'0 0.0
2018-Mar-10 22:31N 37°54' W 122°22'0 0.0
2018-Mar-10 22:01N 37°54' W 122°22'0 0.0
2018-Mar-10 21:30N 37°54' W 122°22'0 0.0
2018-Mar-10 21:00N 37°54' W 122°22'0 0.0
2018-Mar-10 20:30N 37°54' W 122°22'0 0.0
2018-Mar-10 20:01N 37°54' W 122°22'0 0.0
2018-Mar-10 19:31N 37°54' W 122°22'0 0.0
2018-Mar-10 19:00N 37°54' W 122°22'0 0.0
2018-Mar-10 18:31N 37°54' W 122°22'0 0.0
2018-Mar-10 18:01N 37°54' W 122°22'0 0.0
2018-Mar-10 17:31N 37°54' W 122°22'0 0.0
2018-Mar-10 17:01N 37°54' W 122°22'0 0.0
2018-Mar-10 16:31N 37°54' W 122°22'1 1.8
2018-Mar-10 16:01N 37°55' W 122°22'0 0.5
2018-Mar-10 15:30N 37°55' W 122°22'1 1.7
2018-Mar-10 15:00N 37°54' W 122°22'0 0.1
2018-Mar-10 14:30N 37°54' W 122°22'0 0.0
2018-Mar-10 14:00N 37°54' W 122°22'0 0.0
2018-Mar-10 13:30N 37°54' W 122°22'0 0.0
2018-Mar-10 13:00N 37°54' W 122°22'0 0.0
2018-Mar-10 12:30N 37°54' W 122°22'0 0.0
2018-Mar-10 11:57N 37°54' W 122°22'0 0.0
2018-Mar-10 11:27N 37°54' W 122°22'0 0.1
2018-Mar-10 10:54N 37°54' W 122°22'1 1.5
2018-Mar-10 10:31N 37°54' W 122°23'2 4.0
2018-Mar-10 10:01N 37°53' W 122°24'3 6.5
2018-Mar-10 09:30N 37°49' W 122°23'3 6.6
2018-Mar-10 09:01N 37°46' W 122°22'1 2.2
2018-Mar-10 08:30N 37°45' W 122°23'0 0.0
2018-Mar-10 07:58N 37°45' W 122°23'0 0.0
2018-Mar-10 07:28N 37°45' W 122°23'0 0.0
2018-Mar-10 06:58N 37°45' W 122°23'0 0.0
2018-Mar-10 06:28N 37°45' W 122°23'0 0.0
2018-Mar-10 05:58N 37°45' W 122°23'0 0.0
2018-Mar-10 05:28N 37°45' W 122°23'0 0.0
2018-Mar-10 04:58N 37°45' W 122°23'0 0.0
2018-Mar-10 04:30N 37°45' W 122°23'0 0.1
2018-Mar-10 04:01N 37°45' W 122°22'3 5.8
2018-Mar-10 03:30N 37°48' W 122°21'1 2.8
2018-Mar-10 02:59N 37°49' W 122°22'0 0.0
2018-Mar-10 02:29N 37°49' W 122°22'0 0.0
2018-Mar-10 01:59N 37°49' W 122°22'0 0.0
2018-Mar-10 01:29N 37°49' W 122°22'0 0.0
2018-Mar-10 00:59N 37°49' W 122°22'0 0.0
2018-Mar-10 00:29N 37°49' W 122°22'0 0.0
2018-Mar-09 23:59N 37°49' W 122°22'0 0.0
2018-Mar-09 23:29N 37°49' W 122°22'0 0.0
2018-Mar-09 22:59N 37°49' W 122°22'0 0.0
2018-Mar-09 22:29N 37°49' W 122°22'0 0.0
2018-Mar-09 21:59N 37°49' W 122°22'0 0.0
2018-Mar-09 21:30N 37°49' W 122°22'1 1.4
2018-Mar-09 21:00N 37°49' W 122°21'1 2.4
2018-Mar-09 20:28N 37°49' W 122°20'0 0.0
2018-Mar-09 19:58N 37°49' W 122°20'0 0.0
2018-Mar-09 19:28N 37°49' W 122°20'0 0.0
2018-Mar-09 18:58N 37°49' W 122°20'0 0.0
2018-Mar-09 18:28N 37°49' W 122°20'0 0.0
2018-Mar-09 17:58N 37°49' W 122°20'0 0.0
2018-Mar-09 17:28N 37°49' W 122°20'0 0.0
2018-Mar-09 16:58N 37°49' W 122°20'0 0.0
2018-Mar-09 16:28N 37°49' W 122°20'0 0.0
2018-Mar-09 15:58N 37°49' W 122°20'0 0.0
2018-Mar-09 15:28N 37°49' W 122°20'0 0.0
2018-Mar-09 15:00N 37°49' W 122°20'0 0.8
2018-Mar-09 14:30N 37°49' W 122°20'2 4.3
2018-Mar-09 14:00N 37°50' W 122°22'3 5.4
2018-Mar-09 13:30N 37°52' W 122°24'2 4.2
2018-Mar-09 13:00N 37°54' W 122°24'2 3.6
2018-Mar-09 12:30N 37°55' W 122°22'0 0.7
2018-Mar-09 12:00N 37°55' W 122°22'1 1.1
2018-Mar-09 11:30N 37°54' W 122°22'0 0.0
2018-Mar-09 11:00N 37°54' W 122°22'0 0.0
2018-Mar-09 10:30N 37°54' W 122°22'0 0.0
2018-Mar-09 10:00N 37°54' W 122°22'0 0.0
2018-Mar-09 09:30N 37°54' W 122°22'0 0.0
2018-Mar-09 09:00N 37°54' W 122°22'0 0.0
2018-Mar-09 08:30N 37°54' W 122°22'0 0.0
2018-Mar-09 08:00N 37°54' W 122°22'0 0.0
2018-Mar-09 07:30N 37°54' W 122°22'0 0.0
2018-Mar-09 07:00N 37°54' W 122°22'0 0.0
2018-Mar-09 06:30N 37°54' W 122°22'0 0.0
2018-Mar-09 06:00N 37°54' W 122°22'0 0.0
2018-Mar-09 05:30N 37°54' W 122°22'0 0.0
2018-Mar-09 05:00N 37°54' W 122°22'0 0.0
2018-Mar-09 04:30N 37°54' W 122°22'0 0.0
2018-Mar-09 04:00N 37°54' W 122°22'0 0.0
2018-Mar-09 03:30N 37°54' W 122°22'0 0.0
2018-Mar-09 03:00N 37°54' W 122°22'0 0.0
2018-Mar-09 02:30N 37°54' W 122°22'0 0.0
2018-Mar-09 02:00N 37°54' W 122°22'1 1.8
2018-Mar-09 01:30N 37°54' W 122°23'1 3.0
2018-Mar-09 01:00N 37°56' W 122°25'2 3.2
2018-Mar-09 00:30N 37°54' W 122°23'1 2.7
2018-Mar-09 00:00N 37°55' W 122°22'1 1.7
2018-Mar-08 23:30N 37°54' W 122°22'0 0.0
2018-Mar-08 22:58N 37°54' W 122°22'0 0.0
2018-Mar-08 22:28N 37°54' W 122°22'0 0.0
2018-Mar-08 21:58N 37°54' W 122°22'0 0.0
2018-Mar-08 21:25N 37°54' W 122°22'0 0.0
2018-Mar-08 20:58N 37°54' W 122°22'0 0.0
2018-Mar-08 20:28N 37°54' W 122°22'6 0.3
2018-Mar-07 22:00N 37°49' W 122°21'3 5.7
2018-Mar-07 21:30N 37°48' W 122°18'0 0.0
2018-Mar-07 20:59N 37°48' W 122°18'0 0.0
2018-Mar-07 20:29N 37°48' W 122°18'0 0.0
2018-Mar-07 19:59N 37°48' W 122°18'0 0.0
2018-Mar-07 19:29N 37°48' W 122°18'0 0.0
2018-Mar-07 18:59N 37°48' W 122°18'0 0.0
2018-Mar-07 18:29N 37°48' W 122°18'0 0.0
2018-Mar-07 17:59N 37°48' W 122°18'0 0.0
2018-Mar-07 17:29N 37°48' W 122°18'0 0.0
2018-Mar-07 16:59N 37°48' W 122°18'0 0.0
2018-Mar-07 16:29N 37°48' W 122°18'0 0.0
2018-Mar-07 15:59N 37°48' W 122°18'1 1.4
2018-Mar-07 15:30N 37°48' W 122°19'0 0.1
2018-Mar-07 15:00N 37°48' W 122°19'0 0.0
2018-Mar-07 14:30N 37°48' W 122°19'0 0.0
2018-Mar-07 14:00N 37°48' W 122°19'0 0.0
2018-Mar-07 13:30N 37°48' W 122°19'0 0.0
2018-Mar-07 13:00N 37°48' W 122°19'0 0.0
2018-Mar-07 12:30N 37°48' W 122°19'0 0.0
2018-Mar-07 12:00N 37°48' W 122°19'0 0.0
2018-Mar-07 11:30N 37°48' W 122°19'0 0.0
2018-Mar-07 11:00N 37°48' W 122°19'0 0.0
2018-Mar-07 10:30N 37°48' W 122°19'0 0.0
2018-Mar-07 10:00N 37°48' W 122°19'0 0.0
2018-Mar-07 09:30N 37°48' W 122°19'0 0.0
2018-Mar-07 09:00N 37°48' W 122°19'0 0.0
2018-Mar-07 08:30N 37°48' W 122°19'0 0.0
2018-Mar-07 08:00N 37°48' W 122°19'0 0.0
2018-Mar-07 07:30N 37°48' W 122°19'1 1.8
2018-Mar-07 06:59N 37°48' W 122°20'2 3.9
2018-Mar-07 06:28N 37°49' W 122°22'0 0.1
2018-Mar-07 05:58N 37°49' W 122°22'0 0.0
2018-Mar-07 05:28N 37°49' W 122°22'0 0.0
2018-Mar-07 04:58N 37°49' W 122°22'0 0.0
2018-Mar-07 04:28N 37°49' W 122°22'0 0.0
2018-Mar-07 03:58N 37°49' W 122°22'0 0.0
2018-Mar-07 03:28N 37°49' W 122°22'0 0.1
2018-Mar-07 02:59N 37°49' W 122°22'4 6.9
2018-Mar-07 02:28N 37°46' W 122°21'0 0.0
2018-Mar-07 01:58N 37°46' W 122°21'0 0.0
2018-Mar-07 01:28N 37°46' W 122°21'0 0.1
2018-Mar-07 00:58N 37°46' W 122°21'0 0.3
2018-Mar-07 00:28N 37°45' W 122°21'0 0.2
2018-Mar-06 23:55N 37°45' W 122°21'0 0.1
2018-Mar-06 23:25N 37°45' W 122°21'0 0.1
2018-Mar-06 22:58N 37°45' W 122°21'0 1.0
2018-Mar-06 22:30N 37°46' W 122°21'4 7.3
2018-Mar-06 22:00N 37°49' W 122°23'3 5.7
2018-Mar-06 21:30N 37°52' W 122°24'2 4.4
2018-Mar-06 21:00N 37°54' W 122°25'2 3.5
2018-Mar-06 20:30N 37°54' W 122°22'0 0.1
2018-Mar-06 20:00N 37°54' W 122°22'0 0.0
2018-Mar-06 19:30N 37°54' W 122°22'0 0.0
2018-Mar-06 19:00N 37°54' W 122°22'0 0.0
2018-Mar-06 18:30N 37°54' W 122°22'0 0.0
2018-Mar-06 18:00N 37°54' W 122°22'0 0.0
2018-Mar-06 17:27N 37°54' W 122°22'0 0.0
2018-Mar-06 17:00N 37°54' W 122°22'0 0.0
2018-Mar-06 16:27N 37°54' W 122°22'0 0.0
2018-Mar-06 16:00N 37°54' W 122°22'1 1.7
2018-Mar-06 15:30N 37°55' W 122°22'2 3.5
2018-Mar-06 15:00N 37°54' W 122°24'1 2.5
2018-Mar-06 14:30N 37°55' W 122°25'2 4.3
2018-Mar-06 14:00N 37°54' W 122°22'0 0.1
2018-Mar-06 13:31N 37°54' W 122°22'1 2.1
2018-Mar-06 13:00N 37°55' W 122°22'1 1.9
2018-Mar-06 12:30N 37°54' W 122°22'0 0.0
2018-Mar-06 11:58N 37°54' W 122°22'0 0.0
2018-Mar-06 11:28N 37°54' W 122°22'0 0.0
2018-Mar-06 10:58N 37°54' W 122°22'0 0.0
2018-Mar-06 10:28N 37°54' W 122°22'0 0.0
2018-Mar-06 09:58N 37°54' W 122°22'0 0.0
2018-Mar-06 09:28N 37°54' W 122°22'0 0.0
2018-Mar-06 08:58N 37°54' W 122°22'0 0.0
2018-Mar-06 08:28N 37°54' W 122°22'0 0.0
2018-Mar-06 07:58N 37°54' W 122°22'0 0.0
2018-Mar-06 07:28N 37°54' W 122°22'0 0.0
2018-Mar-06 06:58N 37°54' W 122°22'0 0.0
2018-Mar-06 06:28N 37°54' W 122°22'0 0.0
2018-Mar-06 05:58N 37°54' W 122°22'0 0.0
2018-Mar-06 05:28N 37°54' W 122°22'0 0.0
2018-Mar-06 04:55N 37°54' W 122°22'0 0.0
2018-Mar-06 04:30N 37°54' W 122°22'0 0.0
2018-Mar-06 04:00N 37°54' W 122°22'0 0.0
2018-Mar-06 03:30N 37°54' W 122°22'0 0.0
2018-Mar-06 03:00N 37°54' W 122°22'0 0.0
2018-Mar-06 02:30N 37°54' W 122°22'0 0.0
2018-Mar-06 02:00N 37°54' W 122°22'0 0.0
2018-Mar-06 01:31N 37°54' W 122°22'0 0.0
2018-Mar-06 01:00N 37°54' W 122°22'0 0.0
2018-Mar-06 00:30N 37°54' W 122°22'1 1.8
2018-Mar-06 00:00N 37°55' W 122°22'1 2.1
2018-Mar-05 23:30N 37°54' W 122°22'2 4.6
2018-Mar-05 23:00N 37°52' W 122°24'4 7.5
2018-Mar-05 22:30N 37°49' W 122°22'3 6.7
2018-Mar-05 22:00N 37°48' W 122°18'0 0.1
2018-Mar-05 21:30N 37°48' W 122°18'0 0.0
2018-Mar-05 21:00N 37°48' W 122°18'0 0.0
2018-Mar-05 20:30N 37°48' W 122°18'0 0.0
2018-Mar-05 20:00N 37°48' W 122°18'0 0.0
2018-Mar-05 19:30N 37°48' W 122°18'0 0.0
2018-Mar-05 19:00N 37°48' W 122°18'0 0.0
2018-Mar-05 18:30N 37°48' W 122°18'0 0.0
2018-Mar-05 18:00N 37°48' W 122°18'0 0.0
2018-Mar-05 17:30N 37°48' W 122°18'0 0.0
2018-Mar-05 17:00N 37°48' W 122°18'0 0.0
2018-Mar-05 16:30N 37°48' W 122°18'  
Track history (hours):
 
Tides and Currents Weather Stations Pressure Air Temp Water Temp Dewpoint Dewpoint Depression Visibility Wind Speed Wind Dir Waves Ship Positions

Point Fermin

Owner: Foss Maritime Company, Seattle, WA. More information available from US FCC via Universal Licensing System and Coast Guard Vessel Documentation Center.

Last reported at 2018-Mar-15 16:06 UTC. Time now 2018-Apr-26 11:12 UTC.
Position N 37°54' W 122°22'.
Warning: this ship's position is 41 days out of date.

Length 32 m; draft 4.3 m.

Type: Towing. MMSI: 367349770.

Date/timePositionNaut miles runAvg speedWind from/ knotsBaromVisibWave heightAir tempDewpointWater temp
2018-Mar-15 16:06N 37°54' W 122°22'0 0.0
2018-Mar-15 15:59N 37°54' W 122°22'2 3.8
2018-Mar-15 15:30N 37°53' W 122°24'3 6.7
2018-Mar-15 15:00N 37°50' W 122°23'3 5.9
2018-Mar-15 14:30N 37°48' W 122°22'2 4.1
2018-Mar-15 14:00N 37°46' W 122°20'0 0.3
2018-Mar-15 13:29N 37°46' W 122°20'0 0.1
2018-Mar-15 12:59N 37°46' W 122°20'0 0.0
2018-Mar-15 12:30N 37°46' W 122°20'0 0.1
2018-Mar-15 12:00N 37°46' W 122°20'0 0.0
2018-Mar-15 11:30N 37°46' W 122°20'0 0.0
2018-Mar-15 11:00N 37°46' W 122°20'0 0.0
2018-Mar-15 10:30N 37°46' W 122°20'0 0.0
2018-Mar-15 10:00N 37°46' W 122°20'0 0.0
2018-Mar-15 09:30N 37°46' W 122°20'0 0.0
2018-Mar-15 09:00N 37°46' W 122°20'0 0.0
2018-Mar-15 08:30N 37°46' W 122°20'0 0.3
2018-Mar-15 08:00N 37°46' W 122°21'0 0.5
2018-Mar-15 07:30N 37°46' W 122°20'3 5.0
2018-Mar-15 07:00N 37°49' W 122°20'0 0.7
2018-Mar-15 06:23N 37°49' W 122°20'0 0.0
2018-Mar-15 05:59N 37°49' W 122°20'0 0.0
2018-Mar-15 05:23N 37°49' W 122°20'0 0.0
2018-Mar-15 04:47N 37°49' W 122°20'0 0.0
2018-Mar-15 04:26N 37°49' W 122°20'0 0.0
2018-Mar-15 03:59N 37°49' W 122°20'0 0.0
2018-Mar-15 03:29N 37°49' W 122°20'0 0.0
2018-Mar-15 02:59N 37°49' W 122°20'0 0.0
2018-Mar-15 02:26N 37°49' W 122°20'0 0.0
2018-Mar-15 01:50N 37°49' W 122°20'0 0.0
2018-Mar-15 01:26N 37°49' W 122°20'0 0.0
2018-Mar-15 00:56N 37°49' W 122°20'0 0.0
2018-Mar-15 00:30N 37°49' W 122°20'1 2.7
2018-Mar-15 00:00N 37°49' W 122°21'2 3.4
2018-Mar-14 23:30N 37°50' W 122°22'1 2.2
2018-Mar-14 23:01N 37°51' W 122°23'2 3.6
2018-Mar-14 22:31N 37°53' W 122°24'2 3.8
2018-Mar-14 22:00N 37°54' W 122°23'1 2.1
2018-Mar-14 21:30N 37°55' W 122°22'1 2.6
2018-Mar-14 21:01N 37°54' W 122°23'2 3.2
2018-Mar-14 20:30N 37°56' W 122°25'1 2.8
2018-Mar-14 20:00N 37°54' W 122°25'4 8.0
2018-Mar-14 19:30N 37°50' W 122°23'3 6.9
2018-Mar-14 19:00N 37°48' W 122°20'2 3.4
2018-Mar-14 18:29N 37°48' W 122°18'0 0.0
2018-Mar-14 17:59N 37°48' W 122°18'0 0.0
2018-Mar-14 17:29N 37°48' W 122°18'0 0.0
2018-Mar-14 16:59N 37°48' W 122°18'0 0.0
2018-Mar-14 16:29N 37°48' W 122°18'0 0.0
2018-Mar-14 15:59N 37°48' W 122°18'0 0.0
2018-Mar-14 15:29N 37°48' W 122°18'0 0.1
2018-Mar-14 15:01N 37°48' W 122°18'2 3.0
2018-Mar-14 14:30N 37°48' W 122°20'3 6.3
2018-Mar-14 14:00N 37°50' W 122°22'4 7.4
2018-Mar-14 13:31N 37°54' W 122°24'2 3.4
2018-Mar-14 13:01N 37°54' W 122°22'0 0.0
2018-Mar-14 12:28N 37°54' W 122°22'0 0.0
2018-Mar-14 11:58N 37°54' W 122°22'0 0.0
2018-Mar-14 11:25N 37°54' W 122°22'0 0.0
2018-Mar-14 10:58N 37°54' W 122°22'0 0.0
2018-Mar-14 10:25N 37°54' W 122°22'0 0.0
2018-Mar-14 09:55N 37°54' W 122°22'0 0.0
2018-Mar-14 09:28N 37°54' W 122°22'1 1.3
2018-Mar-14 09:00N 37°55' W 122°22'1 1.1
2018-Mar-14 08:30N 37°55' W 122°22'2 3.6
2018-Mar-14 07:59N 37°54' W 122°24'4 7.4
2018-Mar-14 07:30N 37°51' W 122°23'4 7.9
2018-Mar-14 07:00N 37°47' W 122°21'1 2.5
2018-Mar-14 06:29N 37°46' W 122°21'0 0.0
2018-Mar-14 05:59N 37°46' W 122°21'0 0.1
2018-Mar-14 05:29N 37°46' W 122°21'0 0.0
2018-Mar-14 04:59N 37°46' W 122°21'0 0.0
2018-Mar-14 04:30N 37°46' W 122°21'0 0.0
2018-Mar-14 04:00N 37°46' W 122°21'0 0.0
2018-Mar-14 03:30N 37°46' W 122°21'0 0.0
2018-Mar-14 03:00N 37°46' W 122°21'0 0.0
2018-Mar-14 02:27N 37°46' W 122°21'0 0.1
2018-Mar-14 02:00N 37°46' W 122°21'0 0.0
2018-Mar-14 01:30N 37°46' W 122°21'0 0.1
2018-Mar-14 01:00N 37°46' W 122°21'0 0.1
2018-Mar-14 00:30N 37°46' W 122°21'0 0.3
2018-Mar-14 00:00N 37°46' W 122°21'0 0.1
2018-Mar-13 23:30N 37°46' W 122°21'0 0.2
2018-Mar-13 23:01N 37°46' W 122°21'3 5.9
2018-Mar-13 22:31N 37°49' W 122°23'3 6.3
2018-Mar-13 22:01N 37°52' W 122°24'2 4.8
2018-Mar-13 21:31N 37°54' W 122°23'1 1.9
2018-Mar-13 21:01N 37°55' W 122°22'0 0.0
2018-Mar-13 20:31N 37°55' W 122°22'0 0.5
2018-Mar-13 20:00N 37°55' W 122°22'1 1.8
2018-Mar-13 19:31N 37°54' W 122°22'0 0.2
2018-Mar-13 19:01N 37°54' W 122°22'0 0.0
2018-Mar-13 18:31N 37°54' W 122°22'1 1.0
2018-Mar-13 18:00N 37°54' W 122°23'3 7.2
2018-Mar-13 17:31N 37°51' W 122°23'2 3.6
2018-Mar-13 17:00N 37°49' W 122°22'2 4.2
2018-Mar-13 16:30N 37°47' W 122°21'3 5.7
2018-Mar-13 16:01N 37°44' W 122°20'1 1.6
2018-Mar-13 15:29N 37°44' W 122°20'0 0.0
2018-Mar-13 14:59N 37°44' W 122°20'0 0.0
2018-Mar-13 14:29N 37°44' W 122°20'0 0.1
2018-Mar-13 13:59N 37°44' W 122°20'0 0.1
2018-Mar-13 13:29N 37°44' W 122°20'0 0.2
2018-Mar-13 12:59N 37°44' W 122°20'0 0.1
2018-Mar-13 12:29N 37°44' W 122°20'0 0.0
2018-Mar-13 11:59N 37°44' W 122°20'0 0.1
2018-Mar-13 11:29N 37°44' W 122°20'0 0.1
2018-Mar-13 11:01N 37°44' W 122°20'2 3.8
2018-Mar-13 10:31N 37°46' W 122°21'3 5.1
2018-Mar-13 10:01N 37°48' W 122°22'2 4.6
2018-Mar-13 09:31N 37°50' W 122°23'3 5.0
2018-Mar-13 09:01N 37°52' W 122°24'2 4.0
2018-Mar-13 08:31N 37°54' W 122°23'1 2.5
2018-Mar-13 08:00N 37°55' W 122°22'1 2.1
2018-Mar-13 07:30N 37°54' W 122°22'0 0.5
2018-Mar-13 07:00N 37°54' W 122°22'0 0.0
2018-Mar-13 06:30N 37°54' W 122°22'0 0.0
2018-Mar-13 06:01N 37°54' W 122°22'0 0.0
2018-Mar-13 05:30N 37°54' W 122°22'0 0.0
2018-Mar-13 04:59N 37°54' W 122°22'0 0.0
2018-Mar-13 04:31N 37°54' W 122°22'0 0.0
2018-Mar-13 04:00N 37°54' W 122°22'0 0.0
2018-Mar-13 03:31N 37°54' W 122°22'0 0.2
2018-Mar-13 03:01N 37°54' W 122°22'2 3.7
2018-Mar-13 02:30N 37°54' W 122°25'3 6.6
2018-Mar-13 02:00N 37°51' W 122°23'3 5.8
2018-Mar-13 01:31N 37°48' W 122°21'2 4.8
2018-Mar-13 01:01N 37°48' W 122°18'0 0.0
2018-Mar-13 00:28N 37°48' W 122°18'0 0.0
2018-Mar-12 23:58N 37°48' W 122°18'0 0.0
2018-Mar-12 23:28N 37°48' W 122°18'0 0.0
2018-Mar-12 22:58N 37°48' W 122°18'0 0.0
2018-Mar-12 22:29N 37°48' W 122°18'0 0.0
2018-Mar-12 21:58N 37°48' W 122°18'0 0.0
2018-Mar-12 21:28N 37°48' W 122°18'0 0.0
2018-Mar-12 20:58N 37°48' W 122°18'0 0.2
2018-Mar-12 20:30N 37°48' W 122°18'2 4.1
2018-Mar-12 20:00N 37°48' W 122°21'3 5.0
2018-Mar-12 19:30N 37°50' W 122°22'3 5.4
2018-Mar-12 19:00N 37°53' W 122°24'2 4.4
2018-Mar-12 18:30N 37°54' W 122°23'0 0.4
2018-Mar-12 18:00N 37°54' W 122°22'0 0.0
2018-Mar-12 17:27N 37°54' W 122°22'0 0.0
2018-Mar-12 17:00N 37°54' W 122°22'0 0.0
2018-Mar-12 16:30N 37°54' W 122°22'0 0.0
2018-Mar-12 15:57N 37°54' W 122°22'0 0.0
2018-Mar-12 15:30N 37°54' W 122°22'0 0.0
2018-Mar-12 14:57N 37°54' W 122°22'1 1.8
2018-Mar-12 14:29N 37°55' W 122°22'1 1.1
2018-Mar-12 14:01N 37°55' W 122°22'1 1.2
2018-Mar-12 13:31N 37°54' W 122°22'3 5.0
2018-Mar-12 13:01N 37°56' W 122°25'0 0.3
2018-Mar-12 12:31N 37°56' W 122°25'2 4.7
2018-Mar-12 11:59N 37°54' W 122°22'2 3.8
2018-Mar-12 11:30N 37°54' W 122°25'4 8.5
2018-Mar-12 11:00N 37°50' W 122°22'1 2.2
2018-Mar-12 10:30N 37°49' W 122°22'1 2.1
2018-Mar-12 10:00N 37°48' W 122°21'2 4.4
2018-Mar-12 09:31N 37°46' W 122°20'0 0.0
2018-Mar-12 09:00N 37°46' W 122°20'0 0.0
2018-Mar-12 08:30N 37°46' W 122°20'0 0.0
2018-Mar-12 08:00N 37°46' W 122°20'0 0.0
2018-Mar-12 07:30N 37°46' W 122°20'0 0.0
2018-Mar-12 07:00N 37°46' W 122°20'0 0.0
2018-Mar-12 06:30N 37°46' W 122°20'0 0.1
2018-Mar-12 06:00N 37°46' W 122°20'0 0.3
2018-Mar-12 05:30N 37°46' W 122°20'0 0.1
2018-Mar-12 05:00N 37°46' W 122°20'0 0.2
2018-Mar-12 04:30N 37°46' W 122°20'3 6.4
2018-Mar-12 04:00N 37°49' W 122°21'3 6.3
2018-Mar-12 03:30N 37°52' W 122°24'2 4.8
2018-Mar-12 03:00N 37°54' W 122°25'2 4.8
2018-Mar-12 02:30N 37°55' W 122°22'1 1.1
2018-Mar-12 02:00N 37°54' W 122°22'0 0.4
2018-Mar-12 01:30N 37°54' W 122°22'0 0.0
2018-Mar-12 00:57N 37°54' W 122°22'0 0.0
2018-Mar-12 00:30N 37°54' W 122°22'0 0.0
2018-Mar-12 00:00N 37°54' W 122°22'0 0.0
2018-Mar-11 23:27N 37°54' W 122°22'0 0.0
2018-Mar-11 23:00N 37°54' W 122°22'0 0.0
2018-Mar-11 22:30N 37°54' W 122°22'0 0.0
2018-Mar-11 22:00N 37°54' W 122°22'0 0.0
2018-Mar-11 21:30N 37°54' W 122°22'1 1.6
2018-Mar-11 21:01N 37°55' W 122°22'1 1.5
2018-Mar-11 20:28N 37°54' W 122°22'0 0.0
2018-Mar-11 19:58N 37°54' W 122°22'0 0.0
2018-Mar-11 19:31N 37°54' W 122°22'0 0.0
2018-Mar-11 19:01N 37°54' W 122°22'0 0.0
2018-Mar-11 18:30N 37°54' W 122°22'0 0.0
2018-Mar-11 18:01N 37°54' W 122°22'0 0.0
2018-Mar-11 17:30N 37°54' W 122°22'0 0.0
2018-Mar-11 17:01N 37°54' W 122°22'0 0.0
2018-Mar-11 16:31N 37°54' W 122°22'0 0.0
2018-Mar-11 16:01N 37°54' W 122°22'0 0.0
2018-Mar-11 15:30N 37°54' W 122°22'0 0.0
2018-Mar-11 15:00N 37°54' W 122°22'0 0.0
2018-Mar-11 14:31N 37°54' W 122°22'0 0.0
2018-Mar-11 14:00N 37°54' W 122°22'0 0.0
2018-Mar-11 13:31N 37°54' W 122°22'0 0.0
2018-Mar-11 13:01N 37°54' W 122°22'0 0.0
2018-Mar-11 12:30N 37°54' W 122°22'0 0.0
2018-Mar-11 12:00N 37°54' W 122°22'0 0.0
2018-Mar-11 11:31N 37°54' W 122°22'0 0.0
2018-Mar-11 11:01N 37°54' W 122°22'0 0.0
2018-Mar-11 10:30N 37°54' W 122°22'0 0.0
2018-Mar-11 10:00N 37°54' W 122°22'0 0.0
2018-Mar-11 09:31N 37°54' W 122°22'0 0.0
2018-Mar-11 09:01N 37°54' W 122°22'0 0.0
2018-Mar-11 08:30N 37°54' W 122°22'0 0.0
2018-Mar-11 08:01N 37°54' W 122°22'0 0.0
2018-Mar-11 07:30N 37°54' W 122°22'0 0.0
2018-Mar-11 07:01N 37°54' W 122°22'0 0.0
2018-Mar-11 06:31N 37°54' W 122°22'0 0.0
2018-Mar-11 06:00N 37°54' W 122°22'1 2.0
2018-Mar-11 05:31N 37°54' W 122°24'1 2.7
2018-Mar-11 05:01N 37°55' W 122°25'2 3.8
2018-Mar-11 04:31N 37°54' W 122°23'1 2.1
2018-Mar-11 04:00N 37°55' W 122°22'1 1.8
2018-Mar-11 03:30N 37°54' W 122°22'0 0.0
2018-Mar-11 03:00N 37°54' W 122°22'0 0.0
2018-Mar-11 02:31N 37°54' W 122°22'0 0.0
2018-Mar-11 02:01N 37°54' W 122°22'0 0.0
2018-Mar-11 01:31N 37°54' W 122°22'0 0.0
2018-Mar-11 01:01N 37°54' W 122°22'0 0.0
2018-Mar-11 00:30N 37°54' W 122°22'0 0.0
2018-Mar-11 00:00N 37°54' W 122°22'0 0.0
2018-Mar-10 23:30N 37°54' W 122°22'0 0.0
2018-Mar-10 23:01N 37°54' W 122°22'0 0.0
2018-Mar-10 22:31N 37°54' W 122°22'0 0.0
2018-Mar-10 22:01N 37°54' W 122°22'0 0.0
2018-Mar-10 21:30N 37°54' W 122°22'0 0.0
2018-Mar-10 21:00N 37°54' W 122°22'0 0.0
2018-Mar-10 20:30N 37°54' W 122°22'0 0.0
2018-Mar-10 20:01N 37°54' W 122°22'0 0.0
2018-Mar-10 19:31N 37°54' W 122°22'0 0.0
2018-Mar-10 19:00N 37°54' W 122°22'0 0.0
2018-Mar-10 18:31N 37°54' W 122°22'0 0.0
2018-Mar-10 18:01N 37°54' W 122°22'0 0.0
2018-Mar-10 17:31N 37°54' W 122°22'0 0.0
2018-Mar-10 17:01N 37°54' W 122°22'0 0.0
2018-Mar-10 16:31N 37°54' W 122°22'1 1.8
2018-Mar-10 16:01N 37°55' W 122°22'0 0.5
2018-Mar-10 15:30N 37°55' W 122°22'1 1.7
2018-Mar-10 15:00N 37°54' W 122°22'0 0.1
2018-Mar-10 14:30N 37°54' W 122°22'0 0.0
2018-Mar-10 14:00N 37°54' W 122°22'0 0.0
2018-Mar-10 13:30N 37°54' W 122°22'0 0.0
2018-Mar-10 13:00N 37°54' W 122°22'0 0.0
2018-Mar-10 12:30N 37°54' W 122°22'0 0.0
2018-Mar-10 11:57N 37°54' W 122°22'0 0.0
2018-Mar-10 11:27N 37°54' W 122°22'0 0.1
2018-Mar-10 10:54N 37°54' W 122°22'1 1.5
2018-Mar-10 10:31N 37°54' W 122°23'2 4.0
2018-Mar-10 10:01N 37°53' W 122°24'3 6.5
2018-Mar-10 09:30N 37°49' W 122°23'3 6.6
2018-Mar-10 09:01N 37°46' W 122°22'1 2.2
2018-Mar-10 08:30N 37°45' W 122°23'0 0.0
2018-Mar-10 07:58N 37°45' W 122°23'0 0.0
2018-Mar-10 07:28N 37°45' W 122°23'0 0.0
2018-Mar-10 06:58N 37°45' W 122°23'0 0.0
2018-Mar-10 06:28N 37°45' W 122°23'0 0.0
2018-Mar-10 05:58N 37°45' W 122°23'0 0.0
2018-Mar-10 05:28N 37°45' W 122°23'0 0.0
2018-Mar-10 04:58N 37°45' W 122°23'0 0.0
2018-Mar-10 04:30N 37°45' W 122°23'0 0.1
2018-Mar-10 04:01N 37°45' W 122°22'3 5.8
2018-Mar-10 03:30N 37°48' W 122°21'1 2.8
2018-Mar-10 02:59N 37°49' W 122°22'0 0.0
2018-Mar-10 02:29N 37°49' W 122°22'0 0.0
2018-Mar-10 01:59N 37°49' W 122°22'0 0.0
2018-Mar-10 01:29N 37°49' W 122°22'0 0.0
2018-Mar-10 00:59N 37°49' W 122°22'0 0.0
2018-Mar-10 00:29N 37°49' W 122°22'0 0.0
2018-Mar-09 23:59N 37°49' W 122°22'0 0.0
2018-Mar-09 23:29N 37°49' W 122°22'0 0.0
2018-Mar-09 22:59N 37°49' W 122°22'0 0.0
2018-Mar-09 22:29N 37°49' W 122°22'0 0.0
2018-Mar-09 21:59N 37°49' W 122°22'0 0.0
2018-Mar-09 21:30N 37°49' W 122°22'1 1.4
2018-Mar-09 21:00N 37°49' W 122°21'1 2.4
2018-Mar-09 20:28N 37°49' W 122°20'0 0.0
2018-Mar-09 19:58N 37°49' W 122°20'0 0.0
2018-Mar-09 19:28N 37°49' W 122°20'0 0.0
2018-Mar-09 18:58N 37°49' W 122°20'0 0.0
2018-Mar-09 18:28N 37°49' W 122°20'0 0.0
2018-Mar-09 17:58N 37°49' W 122°20'0 0.0
2018-Mar-09 17:28N 37°49' W 122°20'0 0.0
2018-Mar-09 16:58N 37°49' W 122°20'0 0.0
2018-Mar-09 16:28N 37°49' W 122°20'0 0.0
2018-Mar-09 15:58N 37°49' W 122°20'0 0.0
2018-Mar-09 15:28N 37°49' W 122°20'0 0.0
2018-Mar-09 15:00N 37°49' W 122°20'0 0.8
2018-Mar-09 14:30N 37°49' W 122°20'2 4.3
2018-Mar-09 14:00N 37°50' W 122°22'3 5.4
2018-Mar-09 13:30N 37°52' W 122°24'2 4.2
2018-Mar-09 13:00N 37°54' W 122°24'2 3.6
2018-Mar-09 12:30N 37°55' W 122°22'0 0.7
2018-Mar-09 12:00N 37°55' W 122°22'1 1.1
2018-Mar-09 11:30N 37°54' W 122°22'0 0.0
2018-Mar-09 11:00N 37°54' W 122°22'0 0.0
2018-Mar-09 10:30N 37°54' W 122°22'0 0.0
2018-Mar-09 10:00N 37°54' W 122°22'0 0.0
2018-Mar-09 09:30N 37°54' W 122°22'0 0.0
2018-Mar-09 09:00N 37°54' W 122°22'0 0.0
2018-Mar-09 08:30N 37°54' W 122°22'0 0.0
2018-Mar-09 08:00N 37°54' W 122°22'0 0.0
2018-Mar-09 07:30N 37°54' W 122°22'0 0.0
2018-Mar-09 07:00N 37°54' W 122°22'0 0.0
2018-Mar-09 06:30N 37°54' W 122°22'0 0.0
2018-Mar-09 06:00N 37°54' W 122°22'0 0.0
2018-Mar-09 05:30N 37°54' W 122°22'0 0.0
2018-Mar-09 05:00N 37°54' W 122°22'0 0.0
2018-Mar-09 04:30N 37°54' W 122°22'0 0.0
2018-Mar-09 04:00N 37°54' W 122°22'0 0.0
2018-Mar-09 03:30N 37°54' W 122°22'0 0.0
2018-Mar-09 03:00N 37°54' W 122°22'0 0.0
2018-Mar-09 02:30N 37°54' W 122°22'0 0.0
2018-Mar-09 02:00N 37°54' W 122°22'1 1.8
2018-Mar-09 01:30N 37°54' W 122°23'1 3.0
2018-Mar-09 01:00N 37°56' W 122°25'2 3.2
2018-Mar-09 00:30N 37°54' W 122°23'1 2.7
2018-Mar-09 00:00N 37°55' W 122°22'1 1.7
2018-Mar-08 23:30N 37°54' W 122°22'0 0.0
2018-Mar-08 22:58N 37°54' W 122°22'0 0.0
2018-Mar-08 22:28N 37°54' W 122°22'0 0.0
2018-Mar-08 21:58N 37°54' W 122°22'0 0.0
2018-Mar-08 21:25N 37°54' W 122°22'0 0.0
2018-Mar-08 20:58N 37°54' W 122°22'0 0.0
2018-Mar-08 20:28N 37°54' W 122°22'6 0.3
2018-Mar-07 22:00N 37°49' W 122°21'3 5.7
2018-Mar-07 21:30N 37°48' W 122°18'0 0.0
2018-Mar-07 20:59N 37°48' W 122°18'0 0.0
2018-Mar-07 20:29N 37°48' W 122°18'0 0.0
2018-Mar-07 19:59N 37°48' W 122°18'0 0.0
2018-Mar-07 19:29N 37°48' W 122°18'0 0.0
2018-Mar-07 18:59N 37°48' W 122°18'0 0.0
2018-Mar-07 18:29N 37°48' W 122°18'0 0.0
2018-Mar-07 17:59N 37°48' W 122°18'0 0.0
2018-Mar-07 17:29N 37°48' W 122°18'0 0.0
2018-Mar-07 16:59N 37°48' W 122°18'0 0.0
2018-Mar-07 16:29N 37°48' W 122°18'0 0.0
2018-Mar-07 15:59N 37°48' W 122°18'1 1.4
2018-Mar-07 15:30N 37°48' W 122°19'0 0.1
2018-Mar-07 15:00N 37°48' W 122°19'0 0.0
2018-Mar-07 14:30N 37°48' W 122°19'0 0.0
2018-Mar-07 14:00N 37°48' W 122°19'0 0.0
2018-Mar-07 13:30N 37°48' W 122°19'0 0.0
2018-Mar-07 13:00N 37°48' W 122°19'0 0.0
2018-Mar-07 12:30N 37°48' W 122°19'0 0.0
2018-Mar-07 12:00N 37°48' W 122°19'0 0.0
2018-Mar-07 11:30N 37°48' W 122°19'0 0.0
2018-Mar-07 11:00N 37°48' W 122°19'0 0.0
2018-Mar-07 10:30N 37°48' W 122°19'0 0.0
2018-Mar-07 10:00N 37°48' W 122°19'0 0.0
2018-Mar-07 09:30N 37°48' W 122°19'0 0.0
2018-Mar-07 09:00N 37°48' W 122°19'0 0.0
2018-Mar-07 08:30N 37°48' W 122°19'0 0.0
2018-Mar-07 08:00N 37°48' W 122°19'0 0.0
2018-Mar-07 07:30N 37°48' W 122°19'1 1.8
2018-Mar-07 06:59N 37°48' W 122°20'2 3.9
2018-Mar-07 06:28N 37°49' W 122°22'0 0.1
2018-Mar-07 05:58N 37°49' W 122°22'0 0.0
2018-Mar-07 05:28N 37°49' W 122°22'0 0.0
2018-Mar-07 04:58N 37°49' W 122°22'0 0.0
2018-Mar-07 04:28N 37°49' W 122°22'0 0.0
2018-Mar-07 03:58N 37°49' W 122°22'0 0.0
2018-Mar-07 03:28N 37°49' W 122°22'0 0.1
2018-Mar-07 02:59N 37°49' W 122°22'4 6.9
2018-Mar-07 02:28N 37°46' W 122°21'0 0.0
2018-Mar-07 01:58N 37°46' W 122°21'0 0.0
2018-Mar-07 01:28N 37°46' W 122°21'0 0.1
2018-Mar-07 00:58N 37°46' W 122°21'0 0.3
2018-Mar-07 00:28N 37°45' W 122°21'0 0.2
2018-Mar-06 23:55N 37°45' W 122°21'0 0.1
2018-Mar-06 23:25N 37°45' W 122°21'0 0.1
2018-Mar-06 22:58N 37°45' W 122°21'0 1.0
2018-Mar-06 22:30N 37°46' W 122°21'4 7.3
2018-Mar-06 22:00N 37°49' W 122°23'3 5.7
2018-Mar-06 21:30N 37°52' W 122°24'2 4.4
2018-Mar-06 21:00N 37°54' W 122°25'2 3.5
2018-Mar-06 20:30N 37°54' W 122°22'0 0.1
2018-Mar-06 20:00N 37°54' W 122°22'0 0.0
2018-Mar-06 19:30N 37°54' W 122°22'0 0.0
2018-Mar-06 19:00N 37°54' W 122°22'0 0.0
2018-Mar-06 18:30N 37°54' W 122°22'0 0.0
2018-Mar-06 18:00N 37°54' W 122°22'0 0.0
2018-Mar-06 17:27N 37°54' W 122°22'0 0.0
2018-Mar-06 17:00N 37°54' W 122°22'0 0.0
2018-Mar-06 16:27N 37°54' W 122°22'0 0.0
2018-Mar-06 16:00N 37°54' W 122°22'1 1.7
2018-Mar-06 15:30N 37°55' W 122°22'2 3.5
2018-Mar-06 15:00N 37°54' W 122°24'1 2.5
2018-Mar-06 14:30N 37°55' W 122°25'2 4.3
2018-Mar-06 14:00N 37°54' W 122°22'0 0.1
2018-Mar-06 13:31N 37°54' W 122°22'1 2.1
2018-Mar-06 13:00N 37°55' W 122°22'1 1.9
2018-Mar-06 12:30N 37°54' W 122°22'0 0.0
2018-Mar-06 11:58N 37°54' W 122°22'0 0.0
2018-Mar-06 11:28N 37°54' W 122°22'0 0.0
2018-Mar-06 10:58N 37°54' W 122°22'0 0.0
2018-Mar-06 10:28N 37°54' W 122°22'0 0.0
2018-Mar-06 09:58N 37°54' W 122°22'0 0.0
2018-Mar-06 09:28N 37°54' W 122°22'0 0.0
2018-Mar-06 08:58N 37°54' W 122°22'0 0.0
2018-Mar-06 08:28N 37°54' W 122°22'0 0.0
2018-Mar-06 07:58N 37°54' W 122°22'0 0.0
2018-Mar-06 07:28N 37°54' W 122°22'0 0.0
2018-Mar-06 06:58N 37°54' W 122°22'0 0.0
2018-Mar-06 06:28N 37°54' W 122°22'0 0.0
2018-Mar-06 05:58N 37°54' W 122°22'0 0.0
2018-Mar-06 05:28N 37°54' W 122°22'0 0.0
2018-Mar-06 04:55N 37°54' W 122°22'0 0.0
2018-Mar-06 04:30N 37°54' W 122°22'0 0.0
2018-Mar-06 04:00N 37°54' W 122°22'0 0.0
2018-Mar-06 03:30N 37°54' W 122°22'0 0.0
2018-Mar-06 03:00N 37°54' W 122°22'0 0.0
2018-Mar-06 02:30N 37°54' W 122°22'0 0.0
2018-Mar-06 02:00N 37°54' W 122°22'0 0.0
2018-Mar-06 01:31N 37°54' W 122°22'0 0.0
2018-Mar-06 01:00N 37°54' W 122°22'0 0.0
2018-Mar-06 00:30N 37°54' W 122°22'1 1.8
2018-Mar-06 00:00N 37°55' W 122°22'1 2.1
2018-Mar-05 23:30N 37°54' W 122°22'2 4.6
2018-Mar-05 23:00N 37°52' W 122°24'4 7.5
2018-Mar-05 22:30N 37°49' W 122°22'3 6.7
2018-Mar-05 22:00N 37°48' W 122°18'0 0.1
2018-Mar-05 21:30N 37°48' W 122°18'0 0.0
2018-Mar-05 21:00N 37°48' W 122°18'0 0.0
2018-Mar-05 20:30N 37°48' W 122°18'0 0.0
2018-Mar-05 20:00N 37°48' W 122°18'0 0.0
2018-Mar-05 19:30N 37°48' W 122°18'0 0.0
2018-Mar-05 19:00N 37°48' W 122°18'0 0.0
2018-Mar-05 18:30N 37°48' W 122°18'0 0.0
2018-Mar-05 18:00N 37°48' W 122°18'0 0.0
2018-Mar-05 17:30N 37°48' W 122°18'0 0.0
2018-Mar-05 17:00N 37°48' W 122°18'0 0.0
2018-Mar-05 16:30N 37°48' W 122°18'  

Dump ship's entire track history